Terminal Aerodrome Forecast
Issued by NWS

Home | Current Version | Previous Version | Text Only | Print | Product List | Glossary On
Versions: 1 2 3 4 5 6 7 8 9 10 11 12
000
FTUS42 KTBW 031735
TAFLAL
TAF
KLAL 031735Z 0318/0418 08008KT P6SM FEW050
     FM032000 08012G18KT P6SM FEW050
     FM040100 08010KT P6SM SKC
     FM040600 07005KT P6SM SKC
     FM041400 08013KT P6SM SCT250=

USA.gov is the U.S. government's official web portal to all federal, state and local government web resources and services.